createdAt,value
2023-03-19T09:03:46.060Z,14.21
2023-03-19T09:06:03.334Z,14.18
2023-03-19T09:08:16.288Z,14.18
2023-03-19T09:10:29.026Z,14.23
2023-03-19T09:12:42.635Z,14.29
2023-03-19T09:14:55.520Z,14.31
2023-03-19T09:17:09.298Z,14.37
2023-03-19T09:19:23.739Z,14.63
2023-03-19T09:21:37.167Z,15.00
2023-03-19T09:23:49.977Z,15.28
2023-03-19T09:26:02.656Z,15.54
2023-03-19T09:28:15.388Z,15.75
2023-03-19T09:30:27.896Z,15.83
2023-03-19T09:32:40.693Z,15.85
2023-03-19T09:34:53.516Z,15.83
2023-03-19T09:37:06.142Z,15.79
2023-03-19T09:39:19.358Z,15.78
2023-03-19T09:41:37.790Z,15.65
2023-03-19T09:44:00.090Z,15.59
2023-03-19T09:46:22.062Z,15.54
2023-03-19T09:48:49.082Z,15.57
2023-03-19T09:51:05.775Z,15.56
2023-03-19T09:53:29.445Z,15.65
2023-03-19T09:55:51.499Z,15.86
2023-03-19T09:58:13.608Z,16.12
2023-03-19T10:00:32.282Z,16.46
2023-03-19T10:02:44.871Z,16.70
2023-03-19T10:05:31.448Z,16.73
2023-03-19T10:08:11.383Z,16.86
2023-03-19T10:10:42.485Z,16.94
2023-03-19T10:13:10.389Z,17.05
2023-03-19T10:15:31.132Z,17.26
2023-03-19T10:18:05.278Z,17.52
2023-03-19T10:20:29.681Z,17.74
2023-03-19T10:22:50.088Z,17.95
2023-03-19T10:25:03.749Z,18.05
2023-03-19T10:27:22.838Z,18.18
2023-03-19T10:29:35.690Z,18.16
2023-03-19T10:31:53.465Z,18.23
2023-03-19T10:34:14.143Z,18.21
2023-03-19T10:36:30.936Z,18.16
2023-03-19T10:38:44.237Z,18.20
2023-03-19T10:41:16.662Z,18.33
2023-03-19T10:43:30.387Z,18.44
2023-03-19T10:45:43.541Z,18.61
2023-03-19T10:47:58.180Z,19.00
2023-03-19T10:50:36.143Z,19.33
2023-03-19T10:53:00.579Z,19.63
2023-03-19T10:55:16.391Z,19.90
2023-03-19T10:57:31.847Z,20.09
2023-03-19T10:59:47.167Z,20.12
2023-03-19T11:02:03.752Z,20.17
2023-03-19T11:04:20.916Z,20.33
2023-03-19T11:06:38.136Z,20.37
2023-03-19T11:08:56.477Z,20.25
2023-03-19T11:11:24.791Z,20.43
2023-03-19T11:13:38.348Z,20.73
2023-03-19T11:15:53.822Z,20.94
2023-03-19T11:18:08.117Z,20.97
2023-03-19T11:20:33.562Z,20.95
2023-03-19T11:22:46.871Z,21.02
2023-03-19T11:25:27.998Z,20.97
2023-03-19T11:27:41.389Z,20.74
2023-03-19T11:29:54.646Z,20.94
2023-03-19T11:32:31.862Z,21.01
2023-03-19T11:35:11.132Z,20.75
2023-03-19T11:37:46.848Z,20.33
2023-03-19T11:40:20.469Z,20.15
2023-03-19T11:42:52.811Z,20.06
2023-03-19T11:45:05.449Z,20.17
2023-03-19T11:47:28.179Z,20.31
2023-03-19T11:49:59.937Z,20.55
2023-03-19T11:52:15.711Z,20.71
2023-03-19T11:54:40.328Z,20.84
2023-03-19T11:57:00.953Z,21.09
2023-03-19T11:59:19.954Z,21.40
2023-03-19T12:01:59.215Z,21.66
2023-03-19T12:04:30.876Z,21.74
2023-03-19T12:07:04.135Z,21.75
2023-03-19T12:09:29.801Z,21.81
2023-03-19T12:12:00.302Z,22.05
2023-03-19T12:14:27.528Z,22.04
2023-03-19T12:16:55.921Z,21.91
2023-03-19T12:19:43.014Z,21.82
2023-03-19T12:22:09.172Z,21.66
2023-03-19T12:24:45.417Z,21.59
2023-03-19T12:27:09.920Z,21.45
2023-03-19T12:29:46.653Z,21.37
2023-03-19T12:32:13.680Z,21.32
2023-03-19T12:34:34.127Z,21.35
2023-03-19T12:36:55.364Z,21.41
2023-03-19T12:39:13.889Z,21.44
2023-03-19T12:41:31.413Z,21.41
2023-03-19T12:43:57.271Z,21.42
2023-03-19T12:46:26.298Z,21.36
2023-03-19T12:48:51.686Z,21.28
2023-03-19T12:51:09.559Z,21.35
2023-03-19T12:53:34.098Z,21.49
2023-03-19T12:55:56.742Z,21.53
2023-03-19T12:58:34.238Z,21.75
2023-03-19T13:01:02.602Z,21.83
2023-03-19T13:03:23.107Z,21.84
2023-03-19T13:06:03.163Z,21.87
2023-03-19T13:08:42.386Z,21.80
2023-03-19T13:10:56.202Z,21.66
2023-03-19T13:13:28.362Z,21.63
2023-03-19T13:15:47.026Z,21.55
2023-03-19T13:18:20.977Z,21.55
2023-03-19T13:21:11.690Z,21.50
2023-03-19T13:23:29.839Z,21.56
2023-03-19T13:25:48.168Z,21.64
2023-03-19T13:28:01.066Z,21.69
2023-03-19T13:30:14.145Z,21.65
2023-03-19T13:32:40.498Z,21.57
2023-03-19T13:35:13.990Z,21.44
2023-03-19T13:37:27.267Z,21.27
2023-03-19T13:39:42.111Z,21.00
2023-03-19T13:42:08.909Z,20.84
2023-03-19T13:44:21.538Z,20.65
2023-03-19T13:46:39.878Z,20.72
2023-03-19T13:48:53.615Z,20.68
2023-03-19T13:51:27.903Z,20.59
2023-03-19T13:53:52.152Z,20.45
2023-03-19T13:56:22.454Z,20.33
2023-03-19T13:58:53.046Z,20.14
2023-03-19T14:01:09.260Z,19.96
2023-03-19T14:03:26.908Z,19.90
2023-03-19T14:05:41.592Z,19.86
2023-03-19T14:07:55.832Z,19.82
2023-03-19T14:10:17.407Z,19.78
2023-03-19T14:12:33.243Z,19.77
2023-03-19T14:14:50.400Z,19.80
2023-03-19T14:17:04.157Z,19.73
2023-03-19T14:19:19.870Z,19.77
2023-03-19T14:21:46.460Z,19.76
2023-03-19T14:27:18.079Z,19.73
2023-03-19T14:29:34.932Z,19.71
2023-03-19T14:31:51.305Z,19.75
2023-03-19T14:34:42.550Z,19.70
2023-03-19T14:37:16.998Z,19.59
2023-03-19T14:39:32.764Z,19.61
2023-03-19T14:41:48.617Z,19.62
2023-03-19T14:44:09.090Z,19.56
2023-03-19T14:46:44.913Z,19.46
2023-03-19T14:49:38.817Z,19.32
2023-03-19T14:52:03.486Z,19.25
2023-03-19T14:54:47.159Z,19.27
2023-03-19T14:57:06.608Z,19.21
2023-03-19T14:59:19.212Z,19.27
2023-03-19T15:01:34.287Z,19.34
2023-03-19T15:03:56.757Z,19.44
2023-03-19T15:06:13.472Z,19.43
2023-03-19T15:08:26.784Z,19.42
2023-03-19T15:11:08.505Z,19.42
2023-03-19T15:13:40.037Z,19.41
2023-03-19T15:16:14.670Z,19.43
2023-03-19T15:18:27.621Z,19.40
2023-03-19T15:20:45.491Z,19.43
2023-03-19T15:23:01.616Z,19.40
2023-03-19T15:25:15.226Z,19.31
2023-03-19T15:27:27.788Z,19.24
2023-03-19T15:29:40.367Z,19.17
2023-03-19T15:32:04.519Z,19.08
2023-03-19T15:34:23.661Z,18.98
2023-03-19T15:36:36.807Z,18.92
2023-03-19T15:39:02.070Z,18.80
2023-03-19T15:41:14.902Z,18.68
2023-03-19T15:43:27.783Z,18.59
2023-03-19T15:45:45.671Z,18.47
2023-03-19T15:48:05.789Z,18.36
2023-03-19T15:50:22.650Z,18.24
2023-03-19T15:52:38.841Z,18.13
2023-03-19T15:54:54.307Z,18.00
2023-03-19T15:57:08.857Z,17.86
2023-03-19T15:59:25.895Z,17.75
2023-03-19T16:01:38.752Z,17.65
2023-03-19T16:04:05.784Z,17.57
2023-03-19T16:06:27.266Z,17.48
2023-03-19T16:08:53.176Z,17.43
2023-03-19T16:11:14.299Z,17.39
2023-03-19T16:13:39.201Z,17.34
2023-03-19T16:16:05.966Z,17.29
2023-03-19T16:18:21.470Z,17.23
2023-03-19T16:20:42.990Z,17.22
2023-03-19T16:22:58.710Z,17.18
2023-03-19T16:25:19.141Z,17.16
2023-03-19T16:27:38.989Z,17.04
2023-03-19T16:29:59.793Z,16.94
2023-03-19T16:32:22.860Z,16.91
2023-03-19T16:34:49.242Z,16.86
2023-03-19T16:37:03.234Z,16.81
2023-03-19T16:39:35.000Z,16.73
2023-03-19T16:42:14.217Z,16.62
2023-03-19T16:44:31.305Z,16.49
2023-03-19T16:46:44.934Z,16.37
2023-03-19T16:48:57.541Z,16.22
2023-03-19T16:51:18.182Z,16.06
2023-03-19T16:53:32.025Z,15.97
2023-03-19T16:55:44.586Z,15.91
2023-03-19T16:58:00.631Z,15.80
2023-03-19T17:00:14.427Z,15.68
2023-03-19T17:02:28.520Z,15.59
2023-03-19T17:04:41.881Z,15.53
2023-03-19T17:06:54.493Z,15.43
2023-03-19T17:09:07.051Z,15.32
2023-03-19T17:11:34.543Z,15.23
2023-03-19T17:13:47.130Z,15.09
2023-03-19T17:16:03.501Z,14.98
2023-03-19T17:18:21.061Z,14.86
2023-03-19T17:20:38.162Z,14.77
2023-03-19T17:22:50.840Z,14.65
2023-03-19T17:25:06.100Z,14.57
2023-03-19T17:27:18.742Z,14.48
2023-03-19T17:29:31.665Z,14.40
2023-03-19T17:31:44.192Z,14.31
2023-03-19T17:34:11.711Z,14.02
2023-03-19T17:36:24.312Z,13.68
2023-03-19T17:38:36.923Z,13.59
2023-03-19T17:40:49.428Z,13.55
2023-03-19T17:43:01.957Z,13.53
2023-03-19T17:45:16.882Z,13.52
2023-03-19T17:47:29.386Z,13.48
2023-03-19T17:49:43.152Z,13.40
2023-03-19T17:51:56.798Z,13.30
2023-03-19T17:54:12.232Z,13.21
2023-03-19T17:56:26.023Z,13.13
2023-03-19T17:58:38.529Z,13.06
2023-03-19T18:00:52.007Z,12.97
2023-03-19T18:03:04.522Z,12.85
2023-03-19T18:05:20.163Z,12.76
2023-03-19T18:07:32.760Z,12.62
2023-03-19T18:09:45.826Z,12.52
2023-03-19T18:11:58.389Z,12.44
2023-03-19T18:14:10.910Z,12.34
2023-03-19T18:16:25.838Z,12.26
2023-03-19T18:18:38.336Z,12.19
2023-03-19T18:20:51.001Z,12.12
2023-03-19T18:23:05.309Z,12.06
2023-03-19T18:25:24.048Z,11.99
2023-03-19T18:27:36.974Z,11.90
2023-03-19T18:29:49.933Z,11.85
2023-03-19T18:32:07.548Z,11.80
2023-03-19T18:34:20.179Z,11.73
2023-03-19T18:36:33.739Z,11.67
2023-03-19T18:38:46.479Z,11.60
2023-03-19T18:40:59.030Z,11.53
2023-03-19T18:43:13.500Z,11.43
2023-03-19T18:45:30.511Z,11.33
2023-03-19T18:47:44.700Z,11.22
2023-03-19T18:49:57.795Z,11.14
2023-03-19T18:52:13.994Z,11.08
2023-03-19T18:54:26.563Z,11.00
2023-03-19T18:56:39.258Z,10.91
2023-03-19T18:58:52.541Z,10.79
2023-03-19T19:01:05.401Z,10.72
2023-03-19T19:03:20.391Z,10.67
2023-03-19T19:05:33.341Z,10.63
2023-03-19T19:07:46.144Z,10.61
2023-03-19T19:09:58.705Z,10.60
2023-03-19T19:12:14.797Z,10.59
2023-03-19T19:14:27.868Z,10.57
2023-03-19T19:16:40.776Z,10.54
2023-03-19T19:18:53.809Z,10.51
2023-03-19T19:21:06.357Z,10.48
2023-03-19T19:23:21.157Z,10.43
2023-03-19T19:25:33.968Z,10.35
2023-03-19T19:27:48.983Z,10.25
2023-03-19T19:30:02.191Z,10.18
2023-03-19T19:32:25.030Z,10.14
2023-03-19T19:34:37.582Z,10.11
2023-03-19T19:36:51.118Z,10.10
2023-03-19T19:39:04.038Z,10.08
2023-03-19T19:41:19.781Z,10.06
2023-03-19T19:43:32.678Z,10.03
2023-03-19T19:45:47.567Z,10.01
2023-03-19T19:48:00.504Z,9.98
2023-03-19T19:50:17.732Z,9.97
2023-03-19T19:52:31.848Z,9.94
2023-03-19T19:54:45.587Z,9.91
2023-03-19T19:56:58.192Z,9.87
2023-03-19T19:59:14.247Z,9.84
2023-03-19T20:01:27.518Z,9.79
2023-03-19T20:03:40.133Z,9.76
2023-03-19T20:05:53.873Z,9.74
2023-03-19T20:08:06.521Z,9.71
2023-03-19T20:10:20.624Z,9.69
2023-03-19T20:12:33.349Z,9.65
2023-03-19T20:14:46.186Z,9.64
2023-03-19T20:16:59.179Z,9.63
2023-03-19T20:19:18.819Z,9.61
2023-03-19T20:21:32.037Z,9.59
2023-03-19T20:23:45.279Z,9.56
2023-03-19T20:25:58.264Z,9.54
2023-03-19T20:28:20.919Z,9.52
2023-03-19T20:30:37.138Z,9.49
2023-03-19T20:32:51.284Z,9.47
2023-03-19T20:35:14.074Z,9.46
2023-03-19T20:37:27.233Z,9.44
2023-03-19T20:39:39.730Z,9.45
2023-03-19T20:41:52.419Z,9.45
2023-03-19T20:44:06.138Z,9.45
2023-03-19T20:46:20.880Z,9.43
2023-03-19T20:48:34.359Z,9.42
2023-03-19T20:50:47.771Z,9.41
2023-03-19T20:53:03.826Z,9.39
2023-03-19T20:55:20.567Z,9.38
2023-03-19T20:57:33.669Z,9.38
2023-03-19T20:59:47.463Z,9.38
2023-03-19T21:02:00.151Z,9.37
2023-03-19T21:04:18.714Z,9.39
2023-03-19T21:06:39.582Z,9.41
2023-03-19T21:09:03.174Z,9.37
2023-03-19T21:11:18.849Z,9.38
2023-03-19T21:13:32.049Z,9.38
2023-03-19T21:15:46.430Z,9.36
2023-03-19T21:17:59.227Z,9.35
2023-03-19T21:20:21.080Z,9.36
2023-03-19T21:22:34.831Z,9.34
2023-03-19T21:24:48.885Z,9.34
2023-03-19T21:27:03.946Z,9.33
2023-03-19T21:29:28.588Z,9.33
2023-03-19T21:31:42.658Z,9.31
2023-03-19T21:33:57.933Z,9.31
2023-03-19T21:36:11.666Z,9.28
2023-03-19T21:38:24.878Z,9.25
2023-03-19T21:40:38.010Z,9.25
2023-03-19T21:42:54.920Z,9.21
2023-03-19T21:45:17.478Z,9.19
2023-03-19T21:47:30.186Z,9.18
2023-03-19T21:49:42.905Z,9.19
2023-03-19T21:51:57.086Z,9.17
2023-03-19T21:54:09.958Z,9.15
2023-03-19T21:56:25.530Z,9.10
2023-03-19T21:58:38.661Z,9.05
2023-03-19T22:00:51.448Z,9.00
2023-03-19T22:03:04.057Z,8.99
2023-03-19T22:05:30.787Z,8.99
2023-03-19T22:07:43.341Z,8.97
2023-03-19T22:09:55.931Z,8.99
2023-03-19T22:12:24.388Z,9.01
2023-03-19T22:14:36.985Z,8.99
2023-03-19T22:16:53.457Z,9.00
2023-03-19T22:19:06.236Z,9.02
2023-03-19T22:21:21.857Z,9.04
2023-03-19T22:23:34.377Z,9.03
2023-03-19T22:25:49.629Z,9.03
2023-03-19T22:28:14.042Z,9.01
2023-03-19T22:30:37.865Z,8.98
2023-03-19T22:32:51.836Z,8.96
2023-03-19T22:35:05.014Z,8.95
2023-03-19T22:37:26.562Z,8.96
2023-03-19T22:39:39.122Z,8.95
2023-03-19T22:41:51.879Z,8.96
2023-03-19T22:44:08.815Z,8.97
2023-03-19T22:46:22.093Z,8.95
2023-03-19T22:48:35.669Z,8.95
2023-03-19T22:50:48.321Z,8.95
2023-03-19T22:53:01.054Z,8.97
2023-03-19T22:55:13.647Z,8.99
2023-03-19T22:57:26.268Z,8.99
2023-03-19T22:59:38.885Z,8.99
2023-03-19T23:01:51.509Z,8.99
2023-03-19T23:04:17.116Z,8.99
2023-03-19T23:06:31.081Z,8.97
2023-03-19T23:08:44.162Z,8.95
2023-03-19T23:10:56.907Z,8.94
2023-03-19T23:13:11.127Z,8.92
2023-03-19T23:15:26.731Z,8.90
2023-03-19T23:17:41.009Z,8.88
2023-03-19T23:19:53.478Z,8.88
2023-03-19T23:22:13.536Z,8.87
2023-03-19T23:24:26.606Z,8.86
2023-03-19T23:26:44.478Z,8.85
2023-03-19T23:29:03.466Z,8.86
2023-03-19T23:31:16.174Z,8.85
2023-03-19T23:33:29.943Z,8.86
2023-03-19T23:35:43.711Z,8.86
2023-03-19T23:37:57.260Z,8.87
2023-03-19T23:40:10.504Z,8.89
2023-03-19T23:42:31.497Z,8.91
2023-03-19T23:44:44.176Z,8.93
2023-03-19T23:47:01.081Z,8.97
2023-03-19T23:49:15.866Z,8.99
2023-03-19T23:51:28.443Z,9.00
2023-03-19T23:53:42.103Z,9.02
2023-03-19T23:55:59.403Z,9.04
2023-03-19T23:58:11.966Z,9.05
